Time;durP1;ratioP1;P1;durP2;ratioP2;P2;SDS_P1;SDS_P2;PMS_P1;PMS_P2;Temp;Humidity;BMP_temperature;BMP_pressure;BME280_temperature;BME280_humidity;BME280_pressure;Samples;Min_cycle;Max_cycle;Signal;HPM_P1;HPM_P2
2023/11/29 00:00:15;;;;;;;111.70;38.20;;;;;;;-3.01;100.00;99458.50;105545;1259;97964;-79
2023/11/29 00:03:20;;;;;;;101.80;37.60;;;;;;;-2.96;100.00;99458.27;106173;1261;104324;-79
2023/11/29 00:06:06;;;;;;;106.50;42.30;;;;;;;-2.94;100.00;99460.13;105865;1260;99127;-79
2023/11/29 00:08:56;;;;;;;93.10;36.70;;;;;;;-2.94;100.00;99460.73;105805;1261;97942;-79
2023/11/29 00:11:41;;;;;;;100.80;37.30;;;;;;;-2.94;100.00;99459.09;105963;1263;98047;-79
2023/11/29 00:14:27;;;;;;;99.30;37.00;;;;;;;-2.90;100.00;99462.60;105721;1261;97976;-79
2023/11/29 00:17:13;;;;;;;96.00;34.60;;;;;;;-2.88;100.00;99466.97;105473;1260;101878;-78
2023/11/29 00:19:58;;;;;;;99.30;35.60;;;;;;;-2.90;100.00;99468.73;105588;1262;99140;-79
2023/11/29 00:22:44;;;;;;;92.50;32.80;;;;;;;-2.93;100.00;99472.07;105512;1260;98997;-79
2023/11/29 00:25:29;;;;;;;89.40;34.10;;;;;;;-2.95;100.00;99470.18;105527;1264;97877;-80
2023/11/29 00:28:15;;;;;;;88.10;34.70;;;;;;;-2.95;100.00;99470.77;105533;1263;98424;-79
2023/11/29 00:31:00;;;;;;;85.80;32.80;;;;;;;-2.93;100.00;99471.27;105533;1264;101381;-79
2023/11/29 00:33:46;;;;;;;86.00;34.10;;;;;;;-2.93;100.00;99479.33;105444;1264;99270;-79
2023/11/29 00:36:32;;;;;;;83.80;32.60;;;;;;;-2.92;100.00;99487.95;105540;1261;98013;-78
2023/11/29 00:39:20;;;;;;;82.90;30.70;;;;;;;-2.92;100.00;99494.75;105586;1263;98005;-80
2023/11/29 00:42:06;;;;;;;65.50;26.10;;;;;;;-2.90;100.00;99491.77;105478;1261;98480;-80
2023/11/29 00:44:53;;;;;;;72.70;27.80;;;;;;;-2.88;100.00;99492.12;106146;1260;101551;-79
2023/11/29 00:47:38;;;;;;;71.20;28.50;;;;;;;-2.86;100.00;99498.22;105421;1264;99103;-79
2023/11/29 00:50:23;;;;;;;62.70;24.80;;;;;;;-2.85;100.00;99498.88;105687;1261;97988;-79
2023/11/29 00:53:09;;;;;;;70.00;26.90;;;;;;;-2.87;100.00;99506.52;105479;1264;97989;-79
2023/11/29 00:55:54;;;;;;;64.40;26.20;;;;;;;-2.89;100.00;99516.30;105503;1263;97871;-79
2023/11/29 00:58:40;;;;;;;63.70;27.00;;;;;;;-2.95;100.00;99520.30;105412;1259;101405;-78
2023/11/29 01:01:25;;;;;;;73.20;25.20;;;;;;;-2.96;100.00;99523.02;105688;1261;100934;-79
2023/11/29 01:04:11;;;;;;;69.00;27.70;;;;;;;-2.97;100.00;99525.40;105710;1263;98060;-79
2023/11/29 01:06:56;;;;;;;60.40;24.40;;;;;;;-2.98;100.00;99527.08;105518;1264;98690;-80
2023/11/29 01:09:42;;;;;;;70.10;26.30;;;;;;;-3.02;100.00;99530.90;105544;1264;98430;-79
2023/11/29 01:12:28;;;;;;;67.30;24.40;;;;;;;-3.06;100.00;99534.88;105559;1261;101324;-79
2023/11/29 01:15:14;;;;;;;63.50;24.90;;;;;;;-3.07;100.00;99535.86;105613;1260;99139;-79
2023/11/29 01:17:59;;;;;;;63.40;25.70;;;;;;;-3.12;100.00;99536.76;105644;1261;97980;-79
2023/11/29 01:20:45;;;;;;;63.50;24.80;;;;;;;-3.18;100.00;99539.30;105519;1261;97874;-79
2023/11/29 01:23:31;;;;;;;69.70;28.00;;;;;;;-3.21;100.00;99535.77;105639;1260;99679;-78
2023/11/29 01:26:17;;;;;;;69.10;28.20;;;;;;;-3.22;100.00;99532.20;105597;1259;102118;-79
2023/11/29 01:29:03;;;;;;;66.30;25.60;;;;;;;-3.22;100.00;99531.09;105613;1260;100330;-79
2023/11/29 01:31:48;;;;;;;60.30;24.70;;;;;;;-3.19;100.00;99533.48;105579;1260;98067;-79
2023/11/29 01:34:34;;;;;;;74.20;27.00;;;;;;;-3.19;100.00;99524.94;105433;1264;97931;-80
2023/11/29 01:37:19;;;;;;;59.30;23.40;;;;;;;-3.18;100.00;99525.02;105934;1260;98434;-81
2023/11/29 01:40:08;;;;;;;60.70;23.90;;;;;;;-3.18;100.00;99527.80;105816;1263;102079;-81
2023/11/29 01:42:53;;;;;;;60.10;23.60;;;;;;;-3.15;100.00;99530.48;106061;1260;99070;-80
2023/11/29 01:45:39;;;;;;;59.10;23.40;;;;;;;-3.07;100.00;99528.98;105977;1264;98318;-80
2023/11/29 01:48:25;;;;;;;58.70;24.40;;;;;;;-3.03;100.00;99527.47;105613;1260;97956;-79
2023/11/29 01:51:10;;;;;;;59.60;24.50;;;;;;;-3.05;100.00;99526.73;106041;1259;98499;-80
2023/11/29 01:54:00;;;;;;;59.90;23.70;;;;;;;-3.07;100.00;99521.90;106053;1259;101369;-80
2023/11/29 01:56:46;;;;;;;59.40;23.00;;;;;;;-3.10;100.00;99520.37;105490;1260;100308;-79
2023/11/29 01:59:31;;;;;;;61.10;21.70;;;;;;;-3.11;100.00;99524.83;105493;1263;100177;-80
2023/11/29 02:02:18;;;;;;;48.10;20.30;;;;;;;-3.11;100.00;99527.12;106133;1260;97960;-79
2023/11/29 02:05:04;;;;;;;49.40;18.90;;;;;;;-3.09;100.00;99534.47;106181;1260;97820;-79
2023/11/29 02:07:49;;;;;;;48.10;20.50;;;;;;;-3.08;100.00;99544.51;105741;1259;101476;-80
2023/11/29 02:10:36;;;;;;;55.90;22.20;;;;;;;-3.10;100.00;99547.94;105858;1259;99095;-80
2023/11/29 02:13:22;;;;;;;48.80;20.50;;;;;;;-3.11;100.00;99545.56;106012;1259;98434;-79
2023/11/29 02:16:08;;;;;;;51.20;20.70;;;;;;;-3.10;100.00;99545.02;105991;1259;97998;-80
2023/11/29 02:18:54;;;;;;;50.90;20.70;;;;;;;-3.10;100.00;99542.73;106048;1259;98512;-78
2023/11/29 02:21:41;;;;;;;58.30;21.80;;;;;;;-3.12;100.00;99542.90;106063;1260;102612;-81
2023/11/29 02:24:34;;;;;;;49.70;21.00;;;;;;;-3.20;100.00;99539.67;105931;1259;99175;-80
2023/11/29 02:27:20;;;;;;;51.10;19.70;;;;;;;-3.21;100.00;99541.35;106057;1260;97907;-80
2023/11/29 02:30:07;;;;;;;56.60;21.40;;;;;;;-3.19;100.00;99543.49;105864;1260;97961;-80
2023/11/29 02:32:53;;;;;;;55.30;22.50;;;;;;;-3.19;100.00;99547.27;105790;1264;99646;-79
2023/11/29 02:35:38;;;;;;;53.60;21.10;;;;;;;-3.18;100.00;99552.81;105635;1264;101410;-79
2023/11/29 02:38:24;;;;;;;54.50;21.30;;;;;;;-3.19;100.00;99553.88;105723;1259;99663;-81
2023/11/29 02:41:09;;;;;;;59.70;22.90;;;;;;;-3.15;100.00;99556.86;105668;1263;98050;-80
2023/11/29 02:43:55;;;;;;;58.90;21.30;;;;;;;-3.10;100.00;99558.59;106074;1260;97957;-79
2023/11/29 02:46:40;;;;;;;56.20;21.90;;;;;;;-3.13;100.00;99562.31;105589;1259;97927;-79
2023/11/29 02:49:26;;;;;;;63.80;22.60;;;;;;;-3.18;100.00;99561.91;105395;1263;102665;-78
2023/11/29 02:52:14;;;;;;;61.30;25.00;;;;;;;-3.21;100.00;99559.52;105603;1264;99202;-80
2023/11/29 02:54:59;;;;;;;63.80;23.70;;;;;;;-3.21;100.00;99562.10;106460;1259;99434;-78
2023/11/29 02:57:45;;;;;;;64.10;25.30;;;;;;;-3.18;100.00;99559.95;105624;1260;98101;-79
2023/11/29 03:00:30;;;;;;;63.60;25.10;;;;;;;-3.12;100.00;99561.77;105686;1261;97786;-80
2023/11/29 03:03:16;;;;;;;70.60;26.30;;;;;;;-3.05;100.00;99565.68;105641;1260;101356;-79
2023/11/29 03:06:02;;;;;;;60.90;23.80;;;;;;;-3.01;100.00;99563.30;105636;1259;99128;-79
2023/11/29 03:08:47;;;;;;;62.60;24.70;;;;;;;-3.02;100.00;99565.78;105545;1263;97900;-79
2023/11/29 03:11:34;;;;;;;50.30;20.80;;;;;;;-3.00;100.00;99561.11;105573;1264;97941;-80
2023/11/29 03:14:20;;;;;;;54.80;23.60;;;;;;;-3.01;100.00;99558.76;105584;1263;97975;-79
2023/11/29 03:17:06;;;;;;;53.50;22.50;;;;;;;-3.04;100.00;99558.48;105714;1260;103140;-80
2023/11/29 03:19:51;;;;;;;45.80;18.00;;;;;;;-3.10;100.00;99554.59;105645;1259;99090;-80
2023/11/29 03:22:37;;;;;;;48.20;18.40;;;;;;;-3.14;100.00;99549.67;105650;1263;98434;-79
2023/11/29 03:25:23;;;;;;;48.50;20.40;;;;;;;-3.16;100.00;99545.61;105601;1259;98210;-80
2023/11/29 03:28:08;;;;;;;44.90;19.30;;;;;;;-3.18;100.00;99545.06;105464;1259;97831;-79
2023/11/29 03:30:54;;;;;;;43.20;19.10;;;;;;;-3.18;100.00;99543.21;105490;1264;102619;-80
2023/11/29 03:33:39;;;;;;;47.60;20.30;;;;;;;-3.21;100.00;99538.01;105514;1263;100255;-79
2023/11/29 03:36:25;;;;;;;49.80;19.70;;;;;;;-3.24;100.00;99537.60;105825;1259;98286;-78
2023/11/29 03:39:11;;;;;;;45.60;19.60;;;;;;;-3.25;100.00;99539.64;105615;1261;97952;-79
2023/11/29 03:41:56;;;;;;;46.50;19.70;;;;;;;-3.26;100.00;99540.70;105718;1259;97828;-79
2023/11/29 03:44:42;;;;;;;44.80;18.70;;;;;;;-3.27;100.00;99542.52;105619;1260;101401;-80
2023/11/29 03:47:27;;;;;;;44.90;19.10;;;;;;;-3.30;100.00;99544.15;105586;1259;99690;-79
2023/11/29 03:50:13;;;;;;;48.80;20.50;;;;;;;-3.27;100.00;99546.52;105649;1264;99030;-79
2023/11/29 03:52:59;;;;;;;47.80;20.30;;;;;;;-3.22;100.00;99554.52;105640;1263;97862;-80
2023/11/29 03:55:44;;;;;;;40.50;16.90;;;;;;;-3.23;100.00;99558.29;106153;1259;98019;-79
2023/11/29 03:58:29;;;;;;;45.80;19.10;;;;;;;-3.29;100.00;99560.83;105685;1264;102121;-78
2023/11/29 04:01:15;;;;;;;45.00;19.40;;;;;;;-3.29;100.00;99561.59;105649;1259;100861;-79
2023/11/29 04:04:01;;;;;;;40.70;18.70;;;;;;;-3.34;100.00;99563.38;105527;1259;98092;-78
2023/11/29 04:06:46;;;;;;;41.90;17.70;;;;;;;-3.32;100.00;99568.44;105576;1260;98035;-79
2023/11/29 04:09:32;;;;;;;36.70;15.40;;;;;;;-3.29;100.00;99569.23;105667;1261;97900;-79
2023/11/29 04:12:18;;;;;;;40.20;16.60;;;;;;;-3.31;100.00;99568.19;105769;1259;102130;-79
2023/11/29 04:15:04;;;;;;;43.80;18.20;;;;;;;-3.34;100.00;99571.09;105602;1259;100350;-79
2023/11/29 04:17:49;;;;;;;45.90;19.40;;;;;;;-3.38;100.00;99570.88;105540;1260;99072;-80
2023/11/29 04:20:34;;;;;;;47.80;18.80;;;;;;;-3.39;100.00;99569.39;105650;1259;97893;-80
2023/11/29 04:23:20;;;;;;;42.60;18.90;;;;;;;-3.34;100.00;99568.25;105535;1260;98460;-79
2023/11/29 04:26:05;;;;;;;44.50;18.10;;;;;;;-3.30;100.00;99571.45;105597;1260;101343;-80
2023/11/29 04:28:51;;;;;;;45.10;17.90;;;;;;;-3.30;100.00;99578.89;105658;1259;100330;-79
2023/11/29 04:31:38;;;;;;;43.90;17.40;;;;;;;-3.32;100.00;99580.12;105672;1259;97954;-78
2023/11/29 04:34:24;;;;;;;55.30;21.00;;;;;;;-3.34;100.00;99585.54;105544;1258;99241;-80
2023/11/29 04:37:10;;;;;;;48.50;20.00;;;;;;;-3.34;100.00;99583.60;105481;1259;98331;-80
2023/11/29 04:39:56;;;;;;;49.20;21.30;;;;;;;-3.36;100.00;99585.70;105542;1260;101347;-79
2023/11/29 04:42:41;;;;;;;52.70;21.50;;;;;;;-3.38;100.00;99583.06;105531;1259;99155;-79
2023/11/29 04:45:26;;;;;;;60.60;22.80;;;;;;;-3.38;100.00;99578.38;105641;1259;98935;-80
2023/11/29 04:48:12;;;;;;;59.10;23.20;;;;;;;-3.39;100.00;99574.40;105764;1264;97887;-79
2023/11/29 04:50:57;;;;;;;62.40;24.00;;;;;;;-3.39;100.00;99576.70;105632;1259;98623;-79
2023/11/29 04:53:43;;;;;;;58.40;22.70;;;;;;;-3.41;100.00;99574.60;105650;1259;101469;-80
2023/11/29 04:56:29;;;;;;;54.90;22.70;;;;;;;-3.42;100.00;99576.64;105842;1259;99109;-80
2023/11/29 04:59:14;;;;;;;60.80;22.20;;;;;;;-3.41;100.00;99583.13;105931;1263;97923;-79
2023/11/29 05:01:59;;;;;;;69.40;26.90;;;;;;;-3.37;100.00;99592.75;105975;1259;97940;-80
2023/11/29 05:04:45;;;;;;;65.10;27.00;;;;;;;-3.34;100.00;99599.12;105782;1263;99655;-80
2023/11/29 05:07:30;;;;;;;58.90;25.90;;;;;;;-3.30;100.00;99597.11;106090;1258;102669;-80
2023/11/29 05:10:16;;;;;;;55.10;24.90;;;;;;;-3.33;100.00;99600.14;105959;1259;100352;-80
2023/11/29 05:13:02;;;;;;;56.80;23.20;;;;;;;-3.37;100.00;99600.07;106082;1263;99464;-80
2023/11/29 05:15:48;;;;;;;51.20;22.60;;;;;;;-3.40;100.00;99600.18;105977;1259;97880;-80
2023/11/29 05:18:33;;;;;;;55.90;23.00;;;;;;;-3.43;100.00;99602.84;105973;1259;97862;-79
2023/11/29 05:21:19;;;;;;;52.90;25.10;;;;;;;-3.46;100.00;99602.05;106080;1259;102360;-79
2023/11/29 05:24:05;;;;;;;48.50;22.20;;;;;;;-3.50;100.00;99605.13;105822;1259;100367;-78
2023/11/29 05:26:52;;;;;;;54.10;21.70;;;;;;;-3.50;100.00;99607.83;106052;1262;99115;-81
2023/11/29 05:29:38;;;;;;;56.20;22.00;;;;;;;-3.52;100.00;99605.14;105792;1259;95903;-79
2023/11/29 05:32:23;;;;;;;54.10;21.70;;;;;;;-3.53;100.00;99604.55;106589;1263;98598;-80
2023/11/29 05:35:09;;;;;;;46.90;20.00;;;;;;;-3.52;100.00;99608.33;106061;1263;101313;-79
2023/11/29 05:37:55;;;;;;;54.00;21.70;;;;;;;-3.55;100.00;99609.96;105660;1262;99083;-80
2023/11/29 05:40:40;;;;;;;48.90;19.90;;;;;;;-3.54;100.00;99618.94;105882;1263;98467;-80
2023/11/29 05:43:26;;;;;;;48.60;19.00;;;;;;;-3.55;100.00;99622.38;105869;1262;97941;-79
2023/11/29 05:46:12;;;;;;;52.00;20.10;;;;;;;-3.55;100.00;99618.36;105560;1263;97762;-79
2023/11/29 05:49:01;;;;;;;39.70;18.10;;;;;;;-3.52;100.00;99616.70;105919;1263;102687;-80
2023/11/29 05:51:46;;;;;;;41.50;18.10;;;;;;;-3.53;100.00;99612.92;106072;1258;99085;-83
2023/11/29 05:54:32;;;;;;;51.80;21.60;;;;;;;-3.57;100.00;99614.62;106030;1262;98466;-79
2023/11/29 05:57:17;;;;;;;60.80;22.00;;;;;;;-3.55;100.00;99616.26;105863;1264;97756;-79
2023/11/29 06:00:11;;;;;;;55.20;22.50;;;;;;;-3.53;100.00;99620.94;105584;1260;97934;-79
2023/11/29 06:02:59;;;;;;;52.00;22.40;;;;;;;-3.55;100.00;99621.66;106281;1259;101396;-78
2023/11/29 06:05:45;;;;;;;53.60;24.30;;;;;;;-3.53;100.00;99622.37;105537;1259;100803;-78
2023/11/29 06:08:30;;;;;;;62.70;24.60;;;;;;;-3.52;100.00;99623.13;105675;1262;99269;-79
2023/11/29 06:11:16;;;;;;;54.70;22.70;;;;;;;-3.50;100.00;99626.48;105626;1263;97861;-79
2023/11/29 06:14:02;;;;;;;46.50;20.80;;;;;;;-3.53;100.00;99625.84;105700;1264;98411;-78
2023/11/29 06:16:52;;;;;;;53.20;22.90;;;;;;;-3.54;100.00;99630.95;105549;1264;101434;-78
2023/11/29 06:19:37;;;;;;;54.70;22.40;;;;;;;-3.51;100.00;99636.13;105874;1259;99653;-79
2023/11/29 06:22:23;;;;;;;50.60;21.70;;;;;;;-3.48;100.00;99638.85;105672;1259;98579;-80
2023/11/29 06:25:08;;;;;;;54.30;21.80;;;;;;;-3.48;100.00;99638.83;105677;1259;96632;-79
2023/11/29 06:27:54;;;;;;;56.60;22.60;;;;;;;-3.49;100.00;99636.86;105647;1262;98391;-79
2023/11/29 06:30:41;;;;;;;62.40;25.80;;;;;;;-3.50;100.00;99636.92;105632;1262;101412;-79
2023/11/29 06:33:26;;;;;;;62.30;26.60;;;;;;;-3.51;100.00;99640.50;105707;1263;99237;-79
2023/11/29 06:36:13;;;;;;;67.90;27.20;;;;;;;-3.50;100.00;99641.83;105622;1263;98952;-80
2023/11/29 06:38:59;;;;;;;72.40;31.10;;;;;;;-3.47;100.00;99642.83;105584;1259;98051;-79
2023/11/29 06:41:47;;;;;;;71.20;31.40;;;;;;;-3.46;100.00;99644.23;105578;1264;98384;-79
2023/11/29 06:44:32;;;;;;;75.60;29.30;;;;;;;-3.44;100.00;99644.29;105497;1259;102189;-79
2023/11/29 06:47:17;;;;;;;81.10;32.90;;;;;;;-3.42;100.00;99646.93;105521;1263;100349;-79
2023/11/29 06:50:04;;;;;;;78.80;34.20;;;;;;;-3.37;100.00;99651.25;105700;1263;98979;-80
2023/11/29 06:52:50;;;;;;;74.50;30.30;;;;;;;-3.32;100.00;99651.90;105590;1259;98721;-78
2023/11/29 06:55:35;;;;;;;79.00;33.30;;;;;;;-3.30;100.00;99652.20;105594;1262;99093;-79
2023/11/29 06:58:21;;;;;;;72.90;31.20;;;;;;;-3.26;100.00;99652.80;106091;1260;102410;-79
2023/11/29 07:01:07;;;;;;;67.30;29.50;;;;;;;-3.24;100.00;99654.02;105575;1263;99228;-79
2023/11/29 07:03:53;;;;;;;80.60;32.40;;;;;;;-3.24;100.00;99654.71;105557;1259;98967;-78
2023/11/29 07:06:39;;;;;;;74.80;28.00;;;;;;;-3.22;100.00;99662.27;105502;1259;97887;-79
2023/11/29 07:09:25;;;;;;;78.90;31.00;;;;;;;-3.23;100.00;99670.70;105477;1260;98520;-79
2023/11/29 07:12:10;;;;;;;81.60;32.90;;;;;;;-3.22;100.00;99680.92;105637;1259;102688;-79
2023/11/29 07:14:58;;;;;;;81.10;36.10;;;;;;;-3.17;100.00;99686.30;105562;1260;99186;-80
2023/11/29 07:17:43;;;;;;;87.50;33.80;;;;;;;-3.14;100.00;99690.58;105603;1260;97912;-79
2023/11/29 07:20:29;;;;;;;139.30;54.30;;;;;;;-3.13;100.00;99691.74;105589;1264;97914;-78
2023/11/29 07:23:15;;;;;;;109.70;47.90;;;;;;;-3.10;100.00;99693.23;105517;1264;97963;-80
2023/11/29 07:26:01;;;;;;;81.50;33.90;;;;;;;-3.11;100.00;99699.41;105509;1263;102691;-79
2023/11/29 07:28:47;;;;;;;74.00;33.90;;;;;;;-3.16;100.00;99700.15;105549;1264;99095;-79
2023/11/29 07:31:33;;;;;;;76.10;33.60;;;;;;;-3.21;100.00;99697.73;105551;1259;97945;-80
2023/11/29 07:34:18;;;;;;;77.50;31.70;;;;;;;-3.22;100.00;99699.59;105539;1259;97963;-79
2023/11/29 07:37:04;;;;;;;78.10;34.40;;;;;;;-3.21;100.00;99697.56;105529;1259;98502;-79
2023/11/29 07:39:50;;;;;;;77.90;34.80;;;;;;;-3.19;100.00;99702.11;105586;1263;101411;-78
2023/11/29 07:42:35;;;;;;;78.40;34.10;;;;;;;-3.18;100.00;99703.25;105512;1259;99174;-79
2023/11/29 07:45:21;;;;;;;74.40;31.60;;;;;;;-3.14;100.00;99707.02;105923;1263;98060;-80
2023/11/29 07:48:07;;;;;;;79.90;31.80;;;;;;;-3.12;100.00;99705.46;105966;1263;97976;-79
2023/11/29 07:50:54;;;;;;;70.60;29.80;;;;;;;-3.14;100.00;99707.27;105909;1264;128567;-79
2023/11/29 07:53:40;;;;;;;80.60;33.30;;;;;;;-3.11;100.00;99707.29;105801;1259;101401;-80
2023/11/29 07:56:26;;;;;;;64.50;28.50;;;;;;;-3.11;100.00;99711.77;105930;1258;99246;-80
2023/11/29 07:59:12;;;;;;;77.40;34.20;;;;;;;-3.11;100.00;99710.41;105615;1259;97986;-79
2023/11/29 08:01:58;;;;;;;79.40;32.20;;;;;;;-3.06;100.00;99708.97;105496;1263;99199;-80
2023/11/29 08:04:43;;;;;;;84.10;35.40;;;;;;;-3.00;100.00;99713.58;105481;1259;98369;-78
2023/11/29 08:07:32;;;;;;;84.90;33.60;;;;;;;-2.97;100.00;99714.71;105566;1259;101466;-79
2023/11/29 08:10:18;;;;;;;74.50;29.20;;;;;;;-2.94;100.00;99716.70;105458;1259;99215;-79
2023/11/29 08:13:03;;;;;;;63.20;28.40;;;;;;;-2.91;100.00;99718.39;105700;1263;97978;-79
2023/11/29 08:15:49;;;;;;;77.90;31.50;;;;;;;-2.91;100.00;99717.55;105443;1263;97976;-79
2023/11/29 08:18:35;;;;;;;82.70;33.40;;;;;;;-2.90;100.00;99721.63;105412;1263;98545;-79
2023/11/29 08:21:20;;;;;;;66.00;27.50;;;;;;;-2.86;100.00;99717.85;105447;1259;101381;-78
2023/11/29 08:24:06;;;;;;;74.00;27.60;;;;;;;-2.82;100.00;99717.01;105310;1259;100299;-79
2023/11/29 08:26:51;;;;;;;72.50;29.50;;;;;;;-2.78;100.00;99718.91;105302;1259;98336;-78
2023/11/29 08:29:39;;;;;;;81.30;28.00;;;;;;;-2.75;100.00;99718.48;105390;1258;98287;-80
2023/11/29 08:32:27;;;;;;;64.40;27.10;;;;;;;-2.75;100.00;99717.79;105849;1259;98440;-79
2023/11/29 08:35:12;;;;;;;75.40;28.90;;;;;;;-2.76;100.00;99721.70;105680;1259;101346;-80
2023/11/29 08:37:58;;;;;;;68.00;28.80;;;;;;;-2.73;100.00;99724.98;105777;1259;99140;-79
2023/11/29 08:40:43;;;;;;;73.50;30.50;;;;;;;-2.66;100.00;99723.91;105255;1259;98628;-78
2023/11/29 08:43:29;;;;;;;73.30;30.10;;;;;;;-2.61;100.00;99724.86;105258;1263;97967;-77
2023/11/29 08:46:14;;;;;;;72.30;32.00;;;;;;;-2.59;100.00;99722.36;105320;1259;97961;-78
2023/11/29 08:49:00;;;;;;;69.40;30.60;;;;;;;-2.54;100.00;99728.46;105259;1264;101329;-78
2023/11/29 08:51:46;;;;;;;65.50;27.10;;;;;;;-2.53;100.00;99727.00;105274;1263;99292;-78
2023/11/29 08:54:33;;;;;;;71.80;27.70;;;;;;;-2.50;100.00;99726.70;105184;1264;98998;-78
2023/11/29 08:57:23;;;;;;;69.20;29.00;;;;;;;-2.47;100.00;99732.97;105214;1259;98067;-78
2023/11/29 09:00:09;;;;;;;65.20;27.00;;;;;;;-2.47;100.00;99728.56;105202;1260;97983;-79
2023/11/29 09:02:55;;;;;;;66.80;26.30;;;;;;;-2.44;100.00;99730.20;105387;1259;101548;-78
2023/11/29 09:05:40;;;;;;;66.60;29.40;;;;;;;-2.41;100.00;99732.95;105218;1264;99175;-79
2023/11/29 09:08:26;;;;;;;67.40;29.00;;;;;;;-2.35;100.00;99729.69;105127;1264;98666;-78
2023/11/29 09:11:13;;;;;;;64.50;26.80;;;;;;;-2.31;100.00;99730.58;105196;1263;97958;-79
2023/11/29 09:13:58;;;;;;;67.10;27.50;;;;;;;-2.29;100.00;99734.40;105220;1261;98476;-79
2023/11/29 09:16:44;;;;;;;64.20;27.40;;;;;;;-2.26;100.00;99732.96;105214;1259;101343;-77
2023/11/29 09:19:32;;;;;;;67.90;27.20;;;;;;;-2.26;100.00;99732.96;105133;1261;99223;-78
2023/11/29 09:22:17;;;;;;;59.40;25.80;;;;;;;-2.27;100.00;99731.63;105188;1264;99006;-78
2023/11/29 09:25:05;;;;;;;62.70;24.20;;;;;;;-2.27;100.00;99729.89;105084;1263;98004;-78
2023/11/29 09:27:50;;;;;;;60.70;27.00;;;;;;;-2.25;100.00;99732.35;105548;1265;98505;-78
2023/11/29 09:30:36;;;;;;;57.40;23.60;;;;;;;-2.23;100.00;99736.38;105720;1259;101368;-78
2023/11/29 09:33:21;;;;;;;63.70;27.20;;;;;;;-2.19;100.00;99735.71;105475;1260;99152;-78
2023/11/29 09:36:09;;;;;;;58.70;25.30;;;;;;;-2.12;100.00;99733.01;105282;1259;97968;-78
2023/11/29 09:38:55;;;;;;;57.10;23.30;;;;;;;-2.08;100.00;99729.00;105322;1262;98920;-77
2023/11/29 09:41:40;;;;;;;60.00;25.00;;;;;;;-2.07;100.00;99723.45;105585;1264;98759;-80
2023/11/29 09:44:27;;;;;;;52.10;23.80;;;;;;;-2.06;100.00;99722.00;105341;1263;101359;-77
2023/11/29 09:47:14;;;;;;;58.70;24.70;;;;;;;-2.07;100.00;99718.60;105177;1259;99151;-78
2023/11/29 09:50:00;;;;;;;60.60;27.30;;;;;;;-2.05;100.00;99715.25;105268;1258;97977;-78
2023/11/29 09:52:46;;;;;;;54.70;24.00;;;;;;;-1.98;100.00;99715.02;105294;1260;97876;-78
2023/11/29 09:55:33;;;;;;;57.80;24.60;;;;;;;-1.91;100.00;99714.22;105453;1259;98492;-78
2023/11/29 09:58:19;;;;;;;59.90;23.90;;;;;;;-1.82;100.00;99711.67;105425;1261;101378;-78
2023/11/29 10:01:05;;;;;;;54.70;23.80;;;;;;;-1.73;100.00;99710.95;106296;1265;100078;-77
2023/11/29 10:04:04;;;;;;;48.20;21.40;;;;;;;-1.67;100.00;99711.97;105324;1259;98088;-77
2023/11/29 10:06:49;;;;;;;51.40;23.80;;;;;;;-1.63;100.00;99716.99;105299;1265;98004;-77
2023/11/29 10:09:38;;;;;;;41.30;21.10;;;;;;;-1.58;100.00;99717.67;105299;1264;98419;-77
2023/11/29 10:12:23;;;;;;;44.30;21.00;;;;;;;-1.55;100.00;99716.02;105323;1264;102686;-77
2023/11/29 10:15:10;;;;;;;44.60;20.40;;;;;;;-1.50;100.00;99720.49;105335;1264;100361;-79
2023/11/29 10:17:55;;;;;;;42.50;19.60;;;;;;;-1.48;100.00;99720.88;105303;1263;98460;-78
2023/11/29 10:20:49;;;;;;;43.30;19.50;;;;;;;-1.46;100.00;99720.70;105794;1264;97971;-79
2023/11/29 10:23:37;;;;;;;42.40;19.30;;;;;;;-1.44;99.98;99722.91;105651;1264;98520;-77
2023/11/29 10:26:22;;;;;;;44.60;21.30;;;;;;;-1.42;99.71;99724.58;105356;1264;101450;-77
2023/11/29 10:29:09;;;;;;;44.50;18.20;;;;;;;-1.44;99.55;99721.06;105732;1262;99837;-79
2023/11/29 10:31:59;;;;;;;35.10;16.70;;;;;;;-1.44;99.48;99719.98;105690;1263;98929;-78
2023/11/29 10:34:45;;;;;;;29.10;14.60;;;;;;;-1.41;99.34;99720.07;105949;1264;99215;-79
2023/11/29 10:37:30;;;;;;;25.30;14.60;;;;;;;-1.39;98.61;99721.77;105945;1265;98425;-79
2023/11/29 10:40:17;;;;;;;30.60;15.70;;;;;;;-1.36;98.48;99718.76;105406;1263;102627;-79
2023/11/29 10:43:04;;;;;;;29.90;14.20;;;;;;;-1.31;98.39;99715.66;105523;1265;99135;-79
2023/11/29 10:45:56;;;;;;;30.80;16.20;;;;;;;-1.26;97.91;99713.83;105696;1259;99024;-78
2023/11/29 10:48:51;;;;;;;28.90;14.30;;;;;;;-1.24;97.26;99713.30;105742;1259;98853;-79
2023/11/29 10:51:38;;;;;;;32.50;16.10;;;;;;;-1.22;97.33;99711.55;105685;1260;98495;-79
2023/11/29 10:54:25;;;;;;;30.60;17.60;;;;;;;-1.20;97.08;99717.99;107466;1260;101452;-79
2023/11/29 10:57:12;;;;;;;35.40;15.50;;;;;;;-1.20;96.69;99718.05;105452;1263;99146;-78
2023/11/29 11:00:06;;;;;;;29.90;13.00;;;;;;;-1.20;96.57;99714.84;105613;1259;98079;-78
2023/11/29 11:02:52;;;;;;;27.10;14.40;;;;;;;-1.19;96.23;99719.13;105809;1263;97913;-78
2023/11/29 11:05:37;;;;;;;34.30;16.60;;;;;;;-1.13;96.84;99716.71;105507;1265;98485;-78
2023/11/29 11:08:35;;;;;;;36.20;17.20;;;;;;;-0.87;99.59;99715.24;105393;1259;102597;-79
2023/11/29 11:11:40;;;;;;;28.00;14.30;;;;;;;-0.71;97.78;99722.77;105757;1263;100350;-79
2023/11/29 11:14:49;;;;;;;28.30;14.50;;;;;;;-0.78;96.04;99726.52;105575;1259;98348;-79
2023/11/29 11:17:35;;;;;;;20.10;10.70;;;;;;;-0.88;94.58;99726.91;105700;1263;97852;-78
2023/11/29 11:20:20;;;;;;;19.10;10.20;;;;;;;-1.03;93.37;99725.77;105719;1259;97974;-79
2023/11/29 11:23:06;;;;;;;18.70;9.60;;;;;;;-1.14;92.78;99729.35;105661;1259;102111;-78
2023/11/29 11:25:56;;;;;;;24.50;12.40;;;;;;;-1.20;92.88;99724.34;105693;1259;99081;-78
2023/11/29 11:28:43;;;;;;;23.60;11.60;;;;;;;-1.25;92.83;99724.80;105693;1260;99117;-78
2023/11/29 11:31:30;;;;;;;30.70;13.40;;;;;;;-1.29;92.92;99725.13;105748;1263;97919;-77
2023/11/29 11:34:16;;;;;;;29.20;14.90;;;;;;;-1.32;92.74;99726.60;105684;1263;98485;-79
2023/11/29 11:37:02;;;;;;;26.40;13.40;;;;;;;-1.37;92.65;99729.36;105698;1260;101391;-79
2023/11/29 11:39:48;;;;;;;28.30;13.70;;;;;;;-1.39;93.10;99724.56;105679;1260;100335;-78
2023/11/29 11:42:34;;;;;;;26.10;14.00;;;;;;;-1.41;92.75;99727.38;105328;1265;99080;-78
2023/11/29 11:45:21;;;;;;;25.90;14.90;;;;;;;-1.43;92.56;99727.02;105621;1259;97814;-79
2023/11/29 11:48:07;;;;;;;26.40;13.90;;;;;;;-1.45;92.35;99724.79;105703;1260;98502;-79
2023/11/29 11:50:54;;;;;;;27.60;13.60;;;;;;;-1.45;92.33;99726.37;105544;1259;102616;-77
2023/11/29 11:53:41;;;;;;;27.40;14.30;;;;;;;-1.43;92.79;99726.40;105655;1259;99141;-77
2023/11/29 11:56:27;;;;;;;29.90;14.60;;;;;;;-1.38;92.91;99729.82;105392;1264;99066;-78
2023/11/29 11:59:14;;;;;;;29.70;16.10;;;;;;;-1.35;93.10;99725.98;105432;1263;97967;-78
2023/11/29 12:01:59;;;;;;;31.60;16.00;;;;;;;-1.33;93.27;99727.80;105726;1263;97927;-78
2023/11/29 12:04:45;;;;;;;36.70;18.00;;;;;;;-1.30;93.42;99727.36;105667;1259;101416;-78
2023/11/29 12:07:31;;;;;;;41.20;20.80;;;;;;;-1.28;93.26;99724.55;105336;1264;100496;-77
2023/11/29 12:10:17;;;;;;;37.70;20.70;;;;;;;-1.26;93.22;99723.27;105603;1259;99431;-78
2023/11/29 12:13:03;;;;;;;31.40;15.60;;;;;;;-1.23;92.90;99725.28;105471;1263;98393;-78
2023/11/29 12:15:48;;;;;;;35.00;16.00;;;;;;;-1.22;92.60;99724.52;105772;1259;98547;-77
2023/11/29 12:18:34;;;;;;;31.80;15.90;;;;;;;-1.22;92.42;99721.23;105635;1259;101337;-79
2023/11/29 12:21:21;;;;;;;30.40;13.40;;;;;;;-1.23;92.44;99718.95;105773;1263;99096;-79
2023/11/29 12:24:07;;;;;;;30.00;15.30;;;;;;;-1.19;92.76;99716.75;105392;1259;98532;-78